createdAt,value
2018-02-03T00:05:37.424Z,2.27
2018-02-03T02:34:33.729Z,2.65
2018-02-03T03:34:27.818Z,2.62
2018-02-03T03:37:04.114Z,3.10
2018-02-03T03:40:53.132Z,4.53
2018-02-03T17:57:14.415Z,5.05
2018-02-03T18:00:13.366Z,6.10
2018-02-03T18:03:09.832Z,5.53
2018-02-03T18:05:46.958Z,4.82
2018-02-03T18:08:14.732Z,5.32
2018-02-03T18:10:44.782Z,5.45
2018-02-03T18:13:12.718Z,4.97
2018-02-03T18:15:40.454Z,5.55
2018-02-03T18:18:08.284Z,5.55
2018-02-03T18:20:36.134Z,5.00
2018-02-03T18:23:03.900Z,5.30
2018-02-03T18:25:31.654Z,5.30
2018-02-03T18:27:59.595Z,5.55
2018-02-03T18:30:28.309Z,5.20
2018-02-03T18:32:56.107Z,5.37
2018-02-03T18:35:23.925Z,5.20
2018-02-03T18:37:51.676Z,5.50
2018-02-03T18:40:19.707Z,5.37
2018-02-03T18:42:47.651Z,5.12
2018-02-03T18:48:39.386Z,5.28
2018-02-03T18:51:08.985Z,4.22
2018-02-03T18:53:51.033Z,5.60
2018-02-03T18:57:12.663Z,4.68
2018-02-03T18:59:51.511Z,6.10
2018-02-03T19:02:49.624Z,6.00
2018-02-03T19:05:29.115Z,6.65
2018-02-03T19:07:56.938Z,6.37
2018-02-03T19:10:24.831Z,5.80
2018-02-03T19:12:53.433Z,5.60
2018-02-03T19:15:25.921Z,4.55
2018-02-03T19:17:56.575Z,5.90
2018-02-03T19:20:28.016Z,5.05
2018-02-03T19:22:56.370Z,5.25
2018-02-03T19:25:24.208Z,5.68
2018-02-03T19:27:53.322Z,5.22
2018-02-03T19:30:21.154Z,4.82
2018-02-03T19:32:48.965Z,4.50
2018-02-03T19:35:17.857Z,4.70
2018-02-03T19:37:45.727Z,3.83
2018-02-03T19:40:19.181Z,4.35
2018-02-03T19:42:46.957Z,3.65
2018-02-03T19:45:16.907Z,4.22
2018-02-03T19:47:44.684Z,4.47
2018-02-03T19:50:13.073Z,5.20
2018-02-03T19:52:42.096Z,5.05
2018-02-03T19:55:09.814Z,4.45
2018-02-03T19:57:38.336Z,4.75
2018-02-03T20:00:06.027Z,4.60
2018-02-03T20:02:33.803Z,8.15
2018-02-03T20:05:01.659Z,6.15
2018-02-03T20:07:29.395Z,5.22
2018-02-03T20:09:57.185Z,5.07
2018-02-03T20:12:24.925Z,4.15
2018-02-03T20:14:52.818Z,6.37
2018-02-03T20:17:20.975Z,5.57
2018-02-03T20:19:49.394Z,5.37
2018-02-03T20:22:17.759Z,5.30
2018-02-03T20:24:45.442Z,4.68
2018-02-03T20:27:13.224Z,5.72
2018-02-03T20:29:41.015Z,5.18
2018-02-03T20:32:08.725Z,6.30
2018-02-03T20:34:36.484Z,5.95
2018-02-03T20:37:04.179Z,4.50
2018-02-03T20:39:31.860Z,4.82
2018-02-03T20:41:59.520Z,5.78
2018-02-03T20:44:27.282Z,6.57
2018-02-03T20:46:54.945Z,5.95
2018-02-03T20:49:22.590Z,5.25
2018-02-03T20:51:50.667Z,6.28
2018-02-03T20:54:18.365Z,6.30
2018-02-03T20:56:45.994Z,6.20
2018-02-03T20:59:13.708Z,5.30
2018-02-03T21:01:41.447Z,5.78
2018-02-03T21:04:09.661Z,6.00
2018-02-03T21:06:37.446Z,6.50
2018-02-03T21:09:05.179Z,6.85
2018-02-03T21:11:32.958Z,6.65
2018-02-03T21:14:00.652Z,5.85
2018-02-03T21:16:28.516Z,5.75
2018-02-03T21:18:56.557Z,5.82
2018-02-03T21:21:24.204Z,5.85
2018-02-03T21:23:51.854Z,5.50
2018-02-03T21:26:19.572Z,5.35
2018-02-03T21:28:47.238Z,5.90
2018-02-03T21:31:14.925Z,5.05
2018-02-03T21:33:43.199Z,5.07
2018-02-03T21:36:11.418Z,4.35
2018-02-03T21:38:39.363Z,4.72
2018-02-03T21:41:07.697Z,5.10
2018-02-03T21:43:36.089Z,4.25
2018-02-03T21:46:04.423Z,4.75
2018-02-03T21:48:32.067Z,4.53
2018-02-03T21:51:00.129Z,3.53
2018-02-03T21:53:29.459Z,4.37
2018-02-03T21:55:57.244Z,3.80
2018-02-03T21:58:24.969Z,4.72
2018-02-03T22:00:52.683Z,4.28
2018-02-03T22:03:20.434Z,3.60
2018-02-03T22:05:48.212Z,3.95
2018-02-03T22:08:15.985Z,4.40
2018-02-03T22:10:44.740Z,3.90
2018-02-03T22:13:12.479Z,2.90
2018-02-03T22:15:40.175Z,3.37
2018-02-03T22:18:08.458Z,3.65
2018-02-03T22:20:36.528Z,3.30
2018-02-03T22:23:04.596Z,3.62
2018-02-03T22:25:32.922Z,3.50
2018-02-03T22:28:00.673Z,3.70
2018-02-03T22:30:28.410Z,3.78
2018-02-03T22:32:56.092Z,3.90
2018-02-03T22:35:23.864Z,3.87
2018-02-03T22:37:51.618Z,3.60
2018-02-03T22:40:19.341Z,3.65
2018-02-03T22:42:47.433Z,4.18
2018-02-03T22:45:15.175Z,4.43
2018-02-03T22:47:42.904Z,3.83
2018-02-03T22:50:10.721Z,4.43
2018-02-03T22:52:38.414Z,3.72
2018-02-03T22:55:06.074Z,4.07
2018-02-03T22:57:33.761Z,3.95
2018-02-03T23:00:01.723Z,2.85
2018-02-03T23:02:35.143Z,3.85
2018-02-03T23:05:02.862Z,3.78
2018-02-03T23:07:30.630Z,3.50
2018-02-03T23:09:58.681Z,3.95
2018-02-03T23:12:26.368Z,3.40
2018-02-03T23:14:54.064Z,3.37
2018-02-03T23:17:21.795Z,4.28
2018-02-03T23:19:49.465Z,3.78
2018-02-03T23:22:17.274Z,3.95
2018-02-03T23:24:45.026Z,3.67
2018-02-03T23:27:12.683Z,3.30
2018-02-03T23:29:40.359Z,3.20
2018-02-03T23:32:08.081Z,3.50
2018-02-03T23:34:35.732Z,4.20
2018-02-03T23:42:07.134Z,3.58
2018-02-03T23:44:35.265Z,3.80
2018-02-03T23:47:02.903Z,4.40
2018-02-03T23:49:30.580Z,3.80
2018-02-03T23:51:58.193Z,3.22
2018-02-03T23:54:26.233Z,4.00
2018-02-03T23:56:53.832Z,3.40
2018-02-03T23:59:21.512Z,3.67
